sensor_id;sensor_type;location;lat;lon;timestamp;P1;durP1;ratioP1;P2;durP2;ratioP2
37288;SDS011;23174;49.462;11.000;2024-03-02T00:00:05;24.13;;;19.92;;
37288;SDS011;23174;49.462;11.000;2024-03-02T00:02:11;27.10;;;21.35;;
37288;SDS011;23174;49.462;11.000;2024-03-02T00:04:12;22.92;;;19.25;;
37288;SDS011;23174;49.462;11.000;2024-03-02T00:06:12;23.08;;;19.88;;
37288;SDS011;23174;49.462;11.000;2024-03-02T00:08:13;22.58;;;19.25;;
37288;SDS011;23174;49.462;11.000;2024-03-02T00:10:19;23.50;;;19.08;;
37288;SDS011;23174;49.462;11.000;2024-03-02T00:12:21;24.38;;;19.35;;
37288;SDS011;23174;49.462;11.000;2024-03-02T00:14:21;22.23;;;19.90;;
37288;SDS011;23174;49.462;11.000;2024-03-02T00:16:24;22.02;;;19.38;;
37288;SDS011;23174;49.462;11.000;2024-03-02T00:18:31;23.65;;;20.42;;
37288;SDS011;23174;49.462;11.000;2024-03-02T00:20:33;23.45;;;19.65;;
37288;SDS011;23174;49.462;11.000;2024-03-02T00:22:35;20.88;;;18.48;;
37288;SDS011;23174;49.462;11.000;2024-03-02T00:24:37;22.48;;;19.58;;
37288;SDS011;23174;49.462;11.000;2024-03-02T00:26:38;21.80;;;19.08;;
37288;SDS011;23174;49.462;11.000;2024-03-02T00:28:39;21.85;;;19.40;;
37288;SDS011;23174;49.462;11.000;2024-03-02T00:30:50;22.95;;;19.38;;
37288;SDS011;23174;49.462;11.000;2024-03-02T00:32:58;26.30;;;18.67;;
37288;SDS011;23174;49.462;11.000;2024-03-02T00:34:59;24.23;;;20.23;;
37288;SDS011;23174;49.462;11.000;2024-03-02T00:36:59;23.05;;;18.88;;
37288;SDS011;23174;49.462;11.000;2024-03-02T00:39:00;27.33;;;20.27;;
37288;SDS011;23174;49.462;11.000;2024-03-02T00:41:04;22.08;;;18.80;;
37288;SDS011;23174;49.462;11.000;2024-03-02T00:43:18;22.45;;;18.75;;
37288;SDS011;23174;49.462;11.000;2024-03-02T00:45:39;22.38;;;19.52;;
37288;SDS011;23174;49.462;11.000;2024-03-02T00:47:40;25.27;;;19.98;;
37288;SDS011;23174;49.462;11.000;2024-03-02T00:49:40;23.65;;;20.00;;
37288;SDS011;23174;49.462;11.000;2024-03-02T00:51:41;22.35;;;19.15;;
37288;SDS011;23174;49.462;11.000;2024-03-02T00:53:41;25.17;;;18.63;;
37288;SDS011;23174;49.462;11.000;2024-03-02T00:55:42;20.75;;;18.52;;
37288;SDS011;23174;49.462;11.000;2024-03-02T00:57:47;24.05;;;19.73;;
37288;SDS011;23174;49.462;11.000;2024-03-02T00:59:47;21.60;;;19.30;;
37288;SDS011;23174;49.462;11.000;2024-03-02T01:01:48;25.02;;;19.95;;
37288;SDS011;23174;49.462;11.000;2024-03-02T01:03:49;24.02;;;20.38;;
37288;SDS011;23174;49.462;11.000;2024-03-02T01:05:50;22.30;;;18.48;;
37288;SDS011;23174;49.462;11.000;2024-03-02T01:07:50;21.08;;;18.02;;
37288;SDS011;23174;49.462;11.000;2024-03-02T01:09:51;24.15;;;21.40;;
37288;SDS011;23174;49.462;11.000;2024-03-02T01:11:51;25.13;;;20.02;;
37288;SDS011;23174;49.462;11.000;2024-03-02T01:13:52;24.65;;;19.88;;
37288;SDS011;23174;49.462;11.000;2024-03-02T01:15:52;24.88;;;20.38;;
37288;SDS011;23174;49.462;11.000;2024-03-02T01:17:53;25.40;;;20.33;;
37288;SDS011;23174;49.462;11.000;2024-03-02T01:19:53;22.88;;;19.48;;
37288;SDS011;23174;49.462;11.000;2024-03-02T01:21:54;24.67;;;20.45;;
37288;SDS011;23174;49.462;11.000;2024-03-02T01:23:54;23.15;;;19.20;;
37288;SDS011;23174;49.462;11.000;2024-03-02T01:25:55;24.00;;;19.90;;
37288;SDS011;23174;49.462;11.000;2024-03-02T01:27:55;24.63;;;19.73;;
37288;SDS011;23174;49.462;11.000;2024-03-02T01:29:56;22.33;;;18.95;;
37288;SDS011;23174;49.462;11.000;2024-03-02T01:31:56;24.27;;;20.58;;
37288;SDS011;23174;49.462;11.000;2024-03-02T01:33:57;23.92;;;19.02;;
37288;SDS011;23174;49.462;11.000;2024-03-02T01:35:57;22.95;;;19.10;;
37288;SDS011;23174;49.462;11.000;2024-03-02T01:37:58;22.98;;;19.58;;
37288;SDS011;23174;49.462;11.000;2024-03-02T01:39:58;26.33;;;20.58;;
37288;SDS011;23174;49.462;11.000;2024-03-02T01:41:59;24.25;;;20.25;;
37288;SDS011;23174;49.462;11.000;2024-03-02T01:43:59;24.92;;;19.95;;
37288;SDS011;23174;49.462;11.000;2024-03-02T01:46:00;21.50;;;18.83;;
37288;SDS011;23174;49.462;11.000;2024-03-02T01:48:00;23.55;;;20.00;;
37288;SDS011;23174;49.462;11.000;2024-03-02T01:50:01;23.02;;;20.38;;
37288;SDS011;23174;49.462;11.000;2024-03-02T01:52:02;25.17;;;20.52;;
37288;SDS011;23174;49.462;11.000;2024-03-02T01:54:02;24.27;;;20.05;;
37288;SDS011;23174;49.462;11.000;2024-03-02T01:56:03;23.42;;;19.40;;
37288;SDS011;23174;49.462;11.000;2024-03-02T01:58:03;24.50;;;19.42;;
37288;SDS011;23174;49.462;11.000;2024-03-02T02:00:04;24.90;;;19.83;;
37288;SDS011;23174;49.462;11.000;2024-03-02T02:02:05;21.88;;;19.08;;
37288;SDS011;23174;49.462;11.000;2024-03-02T02:04:06;24.60;;;19.83;;
37288;SDS011;23174;49.462;11.000;2024-03-02T02:06:07;23.83;;;19.73;;
37288;SDS011;23174;49.462;11.000;2024-03-02T02:08:08;22.52;;;20.05;;
37288;SDS011;23174;49.462;11.000;2024-03-02T02:10:09;22.13;;;19.83;;
37288;SDS011;23174;49.462;11.000;2024-03-02T02:12:10;22.80;;;19.83;;
37288;SDS011;23174;49.462;11.000;2024-03-02T02:14:11;22.58;;;19.88;;
37288;SDS011;23174;49.462;11.000;2024-03-02T02:16:11;23.10;;;20.25;;
37288;SDS011;23174;49.462;11.000;2024-03-02T02:18:12;25.83;;;20.30;;
37288;SDS011;23174;49.462;11.000;2024-03-02T02:20:12;28.02;;;20.63;;
37288;SDS011;23174;49.462;11.000;2024-03-02T02:22:13;22.23;;;19.05;;
37288;SDS011;23174;49.462;11.000;2024-03-02T02:24:14;21.42;;;19.13;;
37288;SDS011;23174;49.462;11.000;2024-03-02T02:26:14;26.70;;;20.42;;
37288;SDS011;23174;49.462;11.000;2024-03-02T02:28:15;21.63;;;19.40;;
37288;SDS011;23174;49.462;11.000;2024-03-02T02:30:19;24.08;;;20.27;;
37288;SDS011;23174;49.462;11.000;2024-03-02T02:32:20;22.00;;;19.38;;
37288;SDS011;23174;49.462;11.000;2024-03-02T02:34:21;22.42;;;18.83;;
37288;SDS011;23174;49.462;11.000;2024-03-02T02:36:21;22.50;;;19.63;;
37288;SDS011;23174;49.462;11.000;2024-03-02T02:38:22;28.83;;;20.90;;
37288;SDS011;23174;49.462;11.000;2024-03-02T02:40:22;24.92;;;19.58;;
37288;SDS011;23174;49.462;11.000;2024-03-02T02:42:23;21.38;;;19.05;;
37288;SDS011;23174;49.462;11.000;2024-03-02T02:44:23;22.38;;;19.00;;
37288;SDS011;23174;49.462;11.000;2024-03-02T02:46:24;22.05;;;19.10;;
37288;SDS011;23174;49.462;11.000;2024-03-02T02:48:24;23.55;;;19.27;;
37288;SDS011;23174;49.462;11.000;2024-03-02T02:50:25;22.73;;;20.15;;
37288;SDS011;23174;49.462;11.000;2024-03-02T02:52:25;27.48;;;19.60;;
37288;SDS011;23174;49.462;11.000;2024-03-02T02:54:30;23.38;;;18.52;;
37288;SDS011;23174;49.462;11.000;2024-03-02T02:56:31;22.70;;;19.67;;
37288;SDS011;23174;49.462;11.000;2024-03-02T02:58:31;24.08;;;19.75;;
37288;SDS011;23174;49.462;11.000;2024-03-02T03:00:32;22.80;;;19.55;;
37288;SDS011;23174;49.462;11.000;2024-03-02T03:02:32;25.33;;;18.80;;
37288;SDS011;23174;49.462;11.000;2024-03-02T03:04:33;21.85;;;19.52;;
37288;SDS011;23174;49.462;11.000;2024-03-02T03:06:33;23.10;;;18.20;;
37288;SDS011;23174;49.462;11.000;2024-03-02T03:08:34;21.38;;;18.55;;
37288;SDS011;23174;49.462;11.000;2024-03-02T03:10:34;21.08;;;18.67;;
37288;SDS011;23174;49.462;11.000;2024-03-02T03:12:35;24.80;;;20.50;;
37288;SDS011;23174;49.462;11.000;2024-03-02T03:14:36;22.02;;;18.35;;
37288;SDS011;23174;49.462;11.000;2024-03-02T03:16:36;25.95;;;18.58;;
37288;SDS011;23174;49.462;11.000;2024-03-02T03:18:37;22.60;;;19.35;;
37288;SDS011;23174;49.462;11.000;2024-03-02T03:20:38;21.13;;;18.77;;
37288;SDS011;23174;49.462;11.000;2024-03-02T03:22:38;23.88;;;19.15;;
37288;SDS011;23174;49.462;11.000;2024-03-02T03:24:39;23.23;;;19.27;;
37288;SDS011;23174;49.462;11.000;2024-03-02T03:26:39;21.73;;;18.60;;
37288;SDS011;23174;49.462;11.000;2024-03-02T03:28:40;21.67;;;17.30;;
37288;SDS011;23174;49.462;11.000;2024-03-02T03:30:40;20.90;;;17.85;;
37288;SDS011;23174;49.462;11.000;2024-03-02T03:32:41;19.85;;;16.90;;
37288;SDS011;23174;49.462;11.000;2024-03-02T03:34:41;19.65;;;17.45;;
37288;SDS011;23174;49.462;11.000;2024-03-02T03:36:42;19.13;;;17.05;;
37288;SDS011;23174;49.462;11.000;2024-03-02T03:38:43;20.90;;;17.17;;
37288;SDS011;23174;49.462;11.000;2024-03-02T03:40:43;18.25;;;16.05;;
37288;SDS011;23174;49.462;11.000;2024-03-02T03:42:44;17.77;;;15.98;;
37288;SDS011;23174;49.462;11.000;2024-03-02T03:44:45;18.60;;;16.70;;
37288;SDS011;23174;49.462;11.000;2024-03-02T03:46:45;18.85;;;15.80;;
37288;SDS011;23174;49.462;11.000;2024-03-02T03:48:46;17.63;;;15.73;;
37288;SDS011;23174;49.462;11.000;2024-03-02T03:50:46;18.23;;;16.25;;
37288;SDS011;23174;49.462;11.000;2024-03-02T03:52:47;20.38;;;17.45;;
37288;SDS011;23174;49.462;11.000;2024-03-02T03:54:47;19.08;;;16.70;;
37288;SDS011;23174;49.462;11.000;2024-03-02T03:56:48;17.92;;;16.02;;
37288;SDS011;23174;49.462;11.000;2024-03-02T03:58:48;18.63;;;16.52;;
37288;SDS011;23174;49.462;11.000;2024-03-02T04:00:49;17.33;;;15.63;;
37288;SDS011;23174;49.462;11.000;2024-03-02T04:02:49;17.85;;;16.05;;
37288;SDS011;23174;49.462;11.000;2024-03-02T04:04:50;16.83;;;15.02;;
37288;SDS011;23174;49.462;11.000;2024-03-02T04:06:50;16.98;;;15.23;;
37288;SDS011;23174;49.462;11.000;2024-03-02T04:08:51;18.35;;;16.38;;
37288;SDS011;23174;49.462;11.000;2024-03-02T04:10:51;16.52;;;14.82;;
37288;SDS011;23174;49.462;11.000;2024-03-02T04:12:52;16.40;;;14.80;;
37288;SDS011;23174;49.462;11.000;2024-03-02T04:14:52;22.45;;;15.10;;
37288;SDS011;23174;49.462;11.000;2024-03-02T04:16:53;16.25;;;14.23;;
37288;SDS011;23174;49.462;11.000;2024-03-02T04:18:53;15.82;;;14.25;;
37288;SDS011;23174;49.462;11.000;2024-03-02T04:20:54;15.95;;;14.25;;
37288;SDS011;23174;49.462;11.000;2024-03-02T04:22:54;15.45;;;13.88;;
37288;SDS011;23174;49.462;11.000;2024-03-02T04:24:55;15.15;;;13.77;;
37288;SDS011;23174;49.462;11.000;2024-03-02T04:26:56;16.50;;;13.68;;
37288;SDS011;23174;49.462;11.000;2024-03-02T04:28:56;17.98;;;14.30;;
37288;SDS011;23174;49.462;11.000;2024-03-02T04:30:57;17.73;;;13.55;;
37288;SDS011;23174;49.462;11.000;2024-03-02T04:32:57;13.90;;;12.13;;
37288;SDS011;23174;49.462;11.000;2024-03-02T04:34:57;14.68;;;13.00;;
37288;SDS011;23174;49.462;11.000;2024-03-02T04:36:58;13.45;;;12.07;;
37288;SDS011;23174;49.462;11.000;2024-03-02T04:38:58;13.57;;;12.30;;
37288;SDS011;23174;49.462;11.000;2024-03-02T04:40:59;12.75;;;11.45;;
37288;SDS011;23174;49.462;11.000;2024-03-02T04:42:59;11.93;;;10.73;;
37288;SDS011;23174;49.462;11.000;2024-03-02T04:45:00;13.35;;;11.93;;
37288;SDS011;23174;49.462;11.000;2024-03-02T04:47:01;12.73;;;11.52;;
37288;SDS011;23174;49.462;11.000;2024-03-02T04:49:02;12.88;;;11.57;;
37288;SDS011;23174;49.462;11.000;2024-03-02T04:51:02;12.00;;;10.90;;
37288;SDS011;23174;49.462;11.000;2024-03-02T04:53:03;12.32;;;11.13;;
37288;SDS011;23174;49.462;11.000;2024-03-02T04:55:03;11.30;;;10.20;;
37288;SDS011;23174;49.462;11.000;2024-03-02T04:57:24;12.23;;;11.00;;
37288;SDS011;23174;49.462;11.000;2024-03-02T04:59:25;13.05;;;11.80;;
37288;SDS011;23174;49.462;11.000;2024-03-02T05:01:25;12.57;;;11.38;;
37288;SDS011;23174;49.462;11.000;2024-03-02T05:03:26;12.52;;;11.40;;
37288;SDS011;23174;49.462;11.000;2024-03-02T05:05:26;14.15;;;12.68;;
37288;SDS011;23174;49.462;11.000;2024-03-02T05:07:27;12.63;;;11.43;;
37288;SDS011;23174;49.462;11.000;2024-03-02T05:09:27;12.80;;;11.57;;
37288;SDS011;23174;49.462;11.000;2024-03-02T05:11:28;12.25;;;11.15;;
37288;SDS011;23174;49.462;11.000;2024-03-02T05:13:39;11.88;;;10.75;;
37288;SDS011;23174;49.462;11.000;2024-03-02T05:15:39;11.55;;;10.45;;
37288;SDS011;23174;49.462;11.000;2024-03-02T05:17:40;11.73;;;10.63;;
37288;SDS011;23174;49.462;11.000;2024-03-02T05:19:44;11.40;;;10.30;;
37288;SDS011;23174;49.462;11.000;2024-03-02T05:21:45;10.88;;;9.88;;
37288;SDS011;23174;49.462;11.000;2024-03-02T05:23:45;11.93;;;10.82;;
37288;SDS011;23174;49.462;11.000;2024-03-02T05:25:46;10.85;;;9.85;;
37288;SDS011;23174;49.462;11.000;2024-03-02T05:27:46;11.93;;;10.75;;
37288;SDS011;23174;49.462;11.000;2024-03-02T05:29:46;11.60;;;10.50;;
37288;SDS011;23174;49.462;11.000;2024-03-02T05:31:47;11.77;;;10.75;;
37288;SDS011;23174;49.462;11.000;2024-03-02T05:33:48;11.60;;;10.50;;
37288;SDS011;23174;49.462;11.000;2024-03-02T05:35:49;14.63;;;10.60;;
37288;SDS011;23174;49.462;11.000;2024-03-02T05:37:52;12.15;;;11.05;;
37288;SDS011;23174;49.462;11.000;2024-03-02T05:39:52;11.73;;;10.63;;
37288;SDS011;23174;49.462;11.000;2024-03-02T05:41:53;11.35;;;10.27;;
37288;SDS011;23174;49.462;11.000;2024-03-02T05:43:54;11.45;;;10.40;;
37288;SDS011;23174;49.462;11.000;2024-03-02T05:45:54;11.73;;;10.68;;
37288;SDS011;23174;49.462;11.000;2024-03-02T05:47:55;11.32;;;10.23;;
37288;SDS011;23174;49.462;11.000;2024-03-02T05:49:55;12.18;;;11.07;;
37288;SDS011;23174;49.462;11.000;2024-03-02T05:51:56;12.90;;;11.60;;
37288;SDS011;23174;49.462;11.000;2024-03-02T05:53:56;12.13;;;11.00;;
37288;SDS011;23174;49.462;11.000;2024-03-02T05:55:57;11.27;;;10.27;;
37288;SDS011;23174;49.462;11.000;2024-03-02T05:57:57;12.50;;;11.27;;
37288;SDS011;23174;49.462;11.000;2024-03-02T06:00:06;13.00;;;10.90;;
37288;SDS011;23174;49.462;11.000;2024-03-02T06:02:08;13.43;;;12.02;;
37288;SDS011;23174;49.462;11.000;2024-03-02T06:04:11;12.70;;;11.45;;
37288;SDS011;23174;49.462;11.000;2024-03-02T06:06:12;12.35;;;11.18;;
37288;SDS011;23174;49.462;11.000;2024-03-02T06:08:13;13.27;;;12.07;;
37288;SDS011;23174;49.462;11.000;2024-03-02T06:10:13;12.63;;;11.52;;
37288;SDS011;23174;49.462;11.000;2024-03-02T06:12:14;12.23;;;11.13;;
37288;SDS011;23174;49.462;11.000;2024-03-02T06:14:14;11.98;;;10.88;;
37288;SDS011;23174;49.462;11.000;2024-03-02T06:16:15;14.35;;;11.77;;
37288;SDS011;23174;49.462;11.000;2024-03-02T06:18:15;13.32;;;12.00;;
37288;SDS011;23174;49.462;11.000;2024-03-02T06:20:16;13.15;;;11.80;;
37288;SDS011;23174;49.462;11.000;2024-03-02T06:22:16;11.95;;;10.85;;
37288;SDS011;23174;49.462;11.000;2024-03-02T06:24:17;13.65;;;11.57;;
37288;SDS011;23174;49.462;11.000;2024-03-02T06:26:17;12.63;;;11.43;;
37288;SDS011;23174;49.462;11.000;2024-03-02T06:28:18;13.20;;;11.90;;
37288;SDS011;23174;49.462;11.000;2024-03-02T06:30:19;11.85;;;10.75;;
37288;SDS011;23174;49.462;11.000;2024-03-02T06:32:19;13.40;;;12.10;;
37288;SDS011;23174;49.462;11.000;2024-03-02T06:34:20;12.68;;;11.40;;
37288;SDS011;23174;49.462;11.000;2024-03-02T06:36:20;12.15;;;10.88;;
37288;SDS011;23174;49.462;11.000;2024-03-02T06:38:21;12.80;;;11.50;;
37288;SDS011;23174;49.462;11.000;2024-03-02T06:40:21;13.07;;;11.73;;
37288;SDS011;23174;49.462;11.000;2024-03-02T06:42:22;12.18;;;11.05;;
37288;SDS011;23174;49.462;11.000;2024-03-02T06:44:22;12.52;;;11.20;;
37288;SDS011;23174;49.462;11.000;2024-03-02T06:46:23;13.38;;;12.15;;
37288;SDS011;23174;49.462;11.000;2024-03-02T06:48:23;12.40;;;11.25;;
37288;SDS011;23174;49.462;11.000;2024-03-02T06:50:24;13.52;;;12.20;;
37288;SDS011;23174;49.462;11.000;2024-03-02T06:52:25;13.13;;;11.88;;
37288;SDS011;23174;49.462;11.000;2024-03-02T06:54:25;12.98;;;11.77;;
37288;SDS011;23174;49.462;11.000;2024-03-02T06:56:26;13.00;;;11.23;;
37288;SDS011;23174;49.462;11.000;2024-03-02T06:58:26;12.65;;;11.38;;
37288;SDS011;23174;49.462;11.000;2024-03-02T07:00:27;14.13;;;12.18;;
37288;SDS011;23174;49.462;11.000;2024-03-02T07:02:27;11.95;;;10.85;;
37288;SDS011;23174;49.462;11.000;2024-03-02T07:04:28;12.35;;;11.25;;
37288;SDS011;23174;49.462;11.000;2024-03-02T07:06:28;13.27;;;11.93;;
37288;SDS011;23174;49.462;11.000;2024-03-02T07:08:28;13.50;;;12.18;;
37288;SDS011;23174;49.462;11.000;2024-03-02T07:10:29;13.15;;;11.73;;
37288;SDS011;23174;49.462;11.000;2024-03-02T07:12:29;12.88;;;11.48;;
37288;SDS011;23174;49.462;11.000;2024-03-02T07:14:30;13.57;;;12.25;;
37288;SDS011;23174;49.462;11.000;2024-03-02T07:16:49;14.03;;;12.37;;
37288;SDS011;23174;49.462;11.000;2024-03-02T07:18:50;11.70;;;10.60;;
37288;SDS011;23174;49.462;11.000;2024-03-02T07:20:51;13.23;;;11.93;;
37288;SDS011;23174;49.462;11.000;2024-03-02T07:22:52;13.57;;;12.38;;
37288;SDS011;23174;49.462;11.000;2024-03-02T07:24:52;12.55;;;11.25;;
37288;SDS011;23174;49.462;11.000;2024-03-02T07:26:53;12.90;;;11.57;;
37288;SDS011;23174;49.462;11.000;2024-03-02T07:28:53;13.48;;;12.07;;
37288;SDS011;23174;49.462;11.000;2024-03-02T07:31:00;14.05;;;12.48;;
37288;SDS011;23174;49.462;11.000;2024-03-02T07:33:01;13.38;;;11.32;;
37288;SDS011;23174;49.462;11.000;2024-03-02T07:35:02;13.20;;;12.00;;
37288;SDS011;23174;49.462;11.000;2024-03-02T07:37:03;12.70;;;11.40;;
37288;SDS011;23174;49.462;11.000;2024-03-02T07:39:04;12.82;;;11.60;;
37288;SDS011;23174;49.462;11.000;2024-03-02T07:41:04;13.93;;;12.40;;
37288;SDS011;23174;49.462;11.000;2024-03-02T07:43:05;13.48;;;11.55;;
37288;SDS011;23174;49.462;11.000;2024-03-02T07:45:05;14.32;;;12.88;;
37288;SDS011;23174;49.462;11.000;2024-03-02T07:47:06;12.23;;;11.15;;
37288;SDS011;23174;49.462;11.000;2024-03-02T07:49:07;13.27;;;12.07;;
37288;SDS011;23174;49.462;11.000;2024-03-02T07:51:08;12.57;;;11.43;;
37288;SDS011;23174;49.462;11.000;2024-03-02T07:53:08;13.02;;;11.82;;
37288;SDS011;23174;49.462;11.000;2024-03-02T07:55:09;13.75;;;12.10;;
37288;SDS011;23174;49.462;11.000;2024-03-02T07:57:09;13.40;;;12.20;;
37288;SDS011;23174;49.462;11.000;2024-03-02T07:59:10;13.57;;;12.18;;
37288;SDS011;23174;49.462;11.000;2024-03-02T08:01:11;14.07;;;12.68;;
37288;SDS011;23174;49.462;11.000;2024-03-02T08:03:11;14.43;;;13.02;;
37288;SDS011;23174;49.462;11.000;2024-03-02T08:05:12;13.30;;;11.98;;
37288;SDS011;23174;49.462;11.000;2024-03-02T08:07:12;13.63;;;12.35;;
37288;SDS011;23174;49.462;11.000;2024-03-02T08:09:13;13.75;;;12.38;;
37288;SDS011;23174;49.462;11.000;2024-03-02T08:11:14;13.90;;;12.50;;
37288;SDS011;23174;49.462;11.000;2024-03-02T08:13:14;15.02;;;13.48;;
37288;SDS011;23174;49.462;11.000;2024-03-02T08:15:15;14.10;;;12.65;;
37288;SDS011;23174;49.462;11.000;2024-03-02T08:17:15;13.30;;;12.00;;
37288;SDS011;23174;49.462;11.000;2024-03-02T08:19:16;23.73;;;13.57;;
37288;SDS011;23174;49.462;11.000;2024-03-02T08:21:17;14.68;;;13.27;;
37288;SDS011;23174;49.462;11.000;2024-03-02T08:23:18;15.25;;;13.73;;
37288;SDS011;23174;49.462;11.000;2024-03-02T08:25:18;14.63;;;13.23;;
37288;SDS011;23174;49.462;11.000;2024-03-02T08:27:18;13.93;;;12.52;;
37288;SDS011;23174;49.462;11.000;2024-03-02T08:29:19;14.65;;;13.23;;
37288;SDS011;23174;49.462;11.000;2024-03-02T08:31:19;13.90;;;12.60;;
37288;SDS011;23174;49.462;11.000;2024-03-02T08:33:20;13.75;;;12.35;;
37288;SDS011;23174;49.462;11.000;2024-03-02T08:35:20;18.27;;;13.60;;
37288;SDS011;23174;49.462;11.000;2024-03-02T08:37:22;18.42;;;14.82;;
37288;SDS011;23174;49.462;11.000;2024-03-02T08:39:22;17.98;;;13.63;;
37288;SDS011;23174;49.462;11.000;2024-03-02T08:41:23;18.95;;;14.07;;
37288;SDS011;23174;49.462;11.000;2024-03-02T08:43:23;13.07;;;11.88;;
37288;SDS011;23174;49.462;11.000;2024-03-02T08:45:25;13.85;;;12.63;;
37288;SDS011;23174;49.462;11.000;2024-03-02T08:47:25;13.70;;;12.23;;
37288;SDS011;23174;49.462;11.000;2024-03-02T08:49:25;13.63;;;12.23;;
37288;SDS011;23174;49.462;11.000;2024-03-02T08:51:26;12.93;;;11.60;;
37288;SDS011;23174;49.462;11.000;2024-03-02T08:53:26;12.80;;;11.60;;
37288;SDS011;23174;49.462;11.000;2024-03-02T08:55:27;13.05;;;11.75;;
37288;SDS011;23174;49.462;11.000;2024-03-02T08:57:27;12.70;;;11.50;;
37288;SDS011;23174;49.462;11.000;2024-03-02T08:59:28;12.63;;;11.32;;
37288;SDS011;23174;49.462;11.000;2024-03-02T09:01:28;12.00;;;10.93;;
37288;SDS011;23174;49.462;11.000;2024-03-02T09:03:29;12.43;;;11.23;;
37288;SDS011;23174;49.462;11.000;2024-03-02T09:05:29;13.18;;;11.82;;
37288;SDS011;23174;49.462;11.000;2024-03-02T09:07:30;11.35;;;10.15;;
37288;SDS011;23174;49.462;11.000;2024-03-02T09:09:30;12.63;;;11.43;;
37288;SDS011;23174;49.462;11.000;2024-03-02T09:11:31;12.57;;;11.43;;
37288;SDS011;23174;49.462;11.000;2024-03-02T09:13:32;11.68;;;10.57;;
37288;SDS011;23174;49.462;11.000;2024-03-02T09:15:33;12.65;;;10.38;;
37288;SDS011;23174;49.462;11.000;2024-03-02T09:17:37;10.90;;;9.90;;
37288;SDS011;23174;49.462;11.000;2024-03-02T09:19:38;10.77;;;9.77;;
37288;SDS011;23174;49.462;11.000;2024-03-02T09:21:39;10.57;;;9.68;;
37288;SDS011;23174;49.462;11.000;2024-03-02T09:23:39;11.15;;;10.25;;
37288;SDS011;23174;49.462;11.000;2024-03-02T09:25:40;11.00;;;10.00;;
37288;SDS011;23174;49.462;11.000;2024-03-02T09:27:41;10.95;;;9.60;;
37288;SDS011;23174;49.462;11.000;2024-03-02T09:29:41;11.00;;;9.52;;
37288;SDS011;23174;49.462;11.000;2024-03-02T09:31:42;10.80;;;9.80;;
37288;SDS011;23174;49.462;11.000;2024-03-02T09:33:43;9.68;;;8.88;;
37288;SDS011;23174;49.462;11.000;2024-03-02T09:35:43;9.73;;;8.93;;
37288;SDS011;23174;49.462;11.000;2024-03-02T09:37:44;9.65;;;8.85;;
37288;SDS011;23174;49.462;11.000;2024-03-02T09:39:44;8.68;;;8.05;;
37288;SDS011;23174;49.462;11.000;2024-03-02T09:41:45;13.18;;;9.10;;
37288;SDS011;23174;49.462;11.000;2024-03-02T09:43:46;9.48;;;8.68;;
37288;SDS011;23174;49.462;11.000;2024-03-02T09:45:48;9.40;;;8.63;;
37288;SDS011;23174;49.462;11.000;2024-03-02T09:47:48;9.30;;;8.50;;
37288;SDS011;23174;49.462;11.000;2024-03-02T09:49:49;8.63;;;7.93;;
37288;SDS011;23174;49.462;11.000;2024-03-02T09:51:49;8.73;;;7.93;;
37288;SDS011;23174;49.462;11.000;2024-03-02T09:53:50;8.70;;;8.00;;
37288;SDS011;23174;49.462;11.000;2024-03-02T09:55:50;8.18;;;7.47;;
37288;SDS011;23174;49.462;11.000;2024-03-02T09:57:51;7.93;;;7.32;;
37288;SDS011;23174;49.462;11.000;2024-03-02T09:59:51;8.27;;;7.47;;
37288;SDS011;23174;49.462;11.000;2024-03-02T10:01:58;7.90;;;7.30;;
37288;SDS011;23174;49.462;11.000;2024-03-02T10:04:00;7.57;;;6.93;;
37288;SDS011;23174;49.462;11.000;2024-03-02T10:08:22;7.63;;;7.05;;
37288;SDS011;23174;49.462;11.000;2024-03-02T10:10:22;8.23;;;7.50;;
37288;SDS011;23174;49.462;11.000;2024-03-02T10:12:23;7.47;;;6.88;;
37288;SDS011;23174;49.462;11.000;2024-03-02T10:14:23;7.55;;;6.90;;
37288;SDS011;23174;49.462;11.000;2024-03-02T10:16:24;7.43;;;6.93;;
37288;SDS011;23174;49.462;11.000;2024-03-02T10:18:26;7.95;;;7.25;;
37288;SDS011;23174;49.462;11.000;2024-03-02T10:20:31;8.15;;;7.47;;
37288;SDS011;23174;49.462;11.000;2024-03-02T10:22:33;8.38;;;7.60;;
37288;SDS011;23174;49.462;11.000;2024-03-02T10:24:38;7.78;;;7.18;;
37288;SDS011;23174;49.462;11.000;2024-03-02T10:26:39;7.88;;;7.18;;
37288;SDS011;23174;49.462;11.000;2024-03-02T10:28:45;8.15;;;7.55;;
37288;SDS011;23174;49.462;11.000;2024-03-02T10:30:47;8.40;;;7.47;;
37288;SDS011;23174;49.462;11.000;2024-03-02T10:32:49;8.32;;;7.60;;
37288;SDS011;23174;49.462;11.000;2024-03-02T10:34:50;8.02;;;7.32;;
37288;SDS011;23174;49.462;11.000;2024-03-02T10:36:50;7.93;;;7.28;;
37288;SDS011;23174;49.462;11.000;2024-03-02T10:38:51;7.63;;;7.03;;
37288;SDS011;23174;49.462;11.000;2024-03-02T10:40:55;8.32;;;7.63;;
37288;SDS011;23174;49.462;11.000;2024-03-02T10:43:00;7.43;;;6.82;;
37288;SDS011;23174;49.462;11.000;2024-03-02T10:45:03;7.68;;;7.07;;
37288;SDS011;23174;49.462;11.000;2024-03-02T10:47:05;6.80;;;6.30;;
37288;SDS011;23174;49.462;11.000;2024-03-02T10:49:06;7.75;;;7.18;;
37288;SDS011;23174;49.462;11.000;2024-03-02T10:51:06;7.40;;;6.70;;
37288;SDS011;23174;49.462;11.000;2024-03-02T10:53:07;7.20;;;6.60;;
37288;SDS011;23174;49.462;11.000;2024-03-02T10:55:07;7.22;;;6.53;;
37288;SDS011;23174;49.462;11.000;2024-03-02T10:57:09;7.90;;;7.20;;
37288;SDS011;23174;49.462;11.000;2024-03-02T10:59:16;8.10;;;7.45;;
37288;SDS011;23174;49.462;11.000;2024-03-02T11:01:33;7.20;;;6.60;;
37288;SDS011;23174;49.462;11.000;2024-03-02T11:03:35;7.45;;;6.85;;
37288;SDS011;23174;49.462;11.000;2024-03-02T11:05:38;7.20;;;6.60;;
37288;SDS011;23174;49.462;11.000;2024-03-02T11:07:45;7.78;;;7.18;;
37288;SDS011;23174;49.462;11.000;2024-03-02T11:09:56;6.78;;;6.28;;
37288;SDS011;23174;49.462;11.000;2024-03-02T11:12:03;7.10;;;6.60;;
37288;SDS011;23174;49.462;11.000;2024-03-02T11:14:13;7.70;;;7.10;;
37288;SDS011;23174;49.462;11.000;2024-03-02T11:16:18;7.35;;;6.65;;
37288;SDS011;23174;49.462;11.000;2024-03-02T11:18:22;7.30;;;6.70;;
37288;SDS011;23174;49.462;11.000;2024-03-02T11:20:23;7.30;;;6.72;;
37288;SDS011;23174;49.462;11.000;2024-03-02T11:22:24;7.20;;;6.60;;
37288;SDS011;23174;49.462;11.000;2024-03-02T11:26:38;7.80;;;7.20;;
37288;SDS011;23174;49.462;11.000;2024-03-02T11:28:40;9.63;;;8.15;;
37288;SDS011;23174;49.462;11.000;2024-03-02T11:32:42;8.98;;;8.25;;
37288;SDS011;23174;49.462;11.000;2024-03-02T11:34:44;9.23;;;8.43;;
37288;SDS011;23174;49.462;11.000;2024-03-02T11:36:49;9.48;;;8.60;;
37288;SDS011;23174;49.462;11.000;2024-03-02T11:38:50;8.80;;;8.02;;
37288;SDS011;23174;49.462;11.000;2024-03-02T11:40:53;9.52;;;8.63;;
37288;SDS011;23174;49.462;11.000;2024-03-02T11:42:54;9.60;;;8.80;;
37288;SDS011;23174;49.462;11.000;2024-03-02T11:44:55;9.48;;;8.60;;
37288;SDS011;23174;49.462;11.000;2024-03-02T11:47:00;11.05;;;9.23;;
37288;SDS011;23174;49.462;11.000;2024-03-02T11:49:01;8.90;;;8.20;;